Cedar Flat, Kentucky
Current Conditions -  °F | °C
As of 9:15 PM on Saturday 22 Nov 2014 (Local Time) from KGLW Reporting Station
Overcast Overcast  
Wind Chill: 54°   Ceiling: 8000
Heat Index: 54°   Visibility: 10mi
Dew Point: 35°   Wind: 6mph
Humidity: 48%   Direction: 160°SSE
Pressure: 30.1"   Gusts: NA
Location:  36.9886°N, 85.5829°W
Report Text: KGLW 230315Z AUTO 16005KT 10SM OVC080 12/02 A3010 RMK AO2 T01220015
Loading
Personal Weather Stations






























Interactive Weather Map New forecast layout! Learn more

10-Day Weather Forecast

Advertisements
Track Severe Weather on mobile